Time;durP1;ratioP1;P1;durP2;ratioP2;P2;SDS_P1;SDS_P2;PMS_P1;PMS_P2;Temp;Humidity;BMP_temperature;BMP_pressure;BME280_temperature;BME280_humidity;BME280_pressure;Samples;Min_cycle;Max_cycle;Signal;HPM_P1;HPM_P2
2021/12/09 00:02:20;;;;;;;;;;;;;;;-1.20;74.75;99753.59;1693343;82;20153;-75
2021/12/09 00:04:47;;;;;;;;;;;;;;;-1.24;75.14;99748.25;1731048;82;20127;-80
2021/12/09 00:07:13;;;;;;;;;;;;;;;-1.32;75.50;99745.25;1729644;81;20218;-76
2021/12/09 00:09:42;;;;;;;;;;;;;;;-1.32;75.51;99742.66;1730001;82;21172;-76
2021/12/09 00:12:10;;;;;;;;;;;;;;;-1.29;75.45;99748.95;1732006;81;20088;-78
2021/12/09 00:14:37;;;;;;;;;;;;;;;-1.31;75.70;99755.99;1734435;82;20129;-77
2021/12/09 00:17:07;;;;;;;;;;;;;;;-1.31;75.91;99748.22;1728444;82;20186;-76
2021/12/09 00:19:39;;;;;;;;;;;;;;;-1.34;76.19;99744.52;1704203;82;20148;-76
2021/12/09 00:22:05;;;;;;;;;;;;;;;-1.30;76.18;99744.72;1732548;81;21134;-78
2021/12/09 00:24:31;;;;;;;;;;;;;;;-1.34;76.78;99750.99;1731965;81;20154;-79
2021/12/09 00:26:57;;;;;;;;;;;;;;;-1.34;77.20;99752.29;1726751;81;20205;-76
2021/12/09 00:29:26;;;;;;;;;;;;;;;-1.22;77.04;99752.86;1728945;83;20146;-76
2021/12/09 00:31:52;;;;;;;;;;;;;;;-1.35;77.43;99755.79;1728738;82;20203;-75
2021/12/09 00:34:20;;;;;;;;;;;;;;;-1.38;77.57;99753.38;1728985;82;21033;-76
2021/12/09 00:36:58;;;;;;;;;;;;;;;-1.33;77.26;99756.55;1702180;83;20300;-81
2021/12/09 00:39:23;;;;;;;;;;;;;;;-1.39;77.65;99754.33;1733305;81;20500;-76
2021/12/09 00:41:50;;;;;;;;;;;;;;;-1.40;77.66;99752.64;1730042;81;20226;-77
2021/12/09 00:44:16;;;;;;;;;;;;;;;-1.32;77.25;99768.56;1729988;82;20516;-80
2021/12/09 00:46:42;;;;;;;;;;;;;;;-1.40;77.28;99760.41;1703357;82;21151;-81
2021/12/09 00:49:08;;;;;;;;;;;;;;;-1.45;77.43;99764.09;1725988;82;20212;-76
2021/12/09 00:51:34;;;;;;;;;;;;;;;-1.50;77.42;99759.66;1726221;82;20736;-78
2021/12/09 00:54:02;;;;;;;;;;;;;;;-1.49;77.73;99757.45;1731390;82;20209;-77
2021/12/09 00:56:27;;;;;;;;;;;;;;;-1.50;77.73;99768.72;1726884;82;20191;-77
2021/12/09 00:58:55;;;;;;;;;;;;;;;-1.54;78.03;99769.84;1727286;81;21141;-76
2021/12/09 01:01:20;;;;;;;;;;;;;;;-1.32;77.58;99769.86;1724512;81;20485;-76
2021/12/09 01:03:46;;;;;;;;;;;;;;;-1.29;77.31;99764.50;1712588;82;20153;-78
2021/12/09 01:06:12;;;;;;;;;;;;;;;-1.25;77.11;99766.00;1728794;82;20724;-79
2021/12/09 01:08:40;;;;;;;;;;;;;;;-1.16;76.86;99765.45;1729173;83;20193;-80
2021/12/09 01:11:05;;;;;;;;;;;;;;;-1.15;76.76;99768.42;1726799;82;21152;-77
2021/12/09 01:13:33;;;;;;;;;;;;;;;-1.12;76.75;99769.54;1728904;81;21740;-78
2021/12/09 01:16:00;;;;;;;;;;;;;;;-1.04;76.53;99768.23;1704186;82;20208;-81
2021/12/09 01:18:27;;;;;;;;;;;;;;;-1.10;76.73;99762.97;1725907;81;20091;-79
2021/12/09 01:20:53;;;;;;;;;;;;;;;-1.04;76.63;99762.61;1726527;82;20166;-77
2021/12/09 01:23:19;;;;;;;;;;;;;;;-1.06;76.48;99764.44;1728468;82;21235;-78
2021/12/09 01:25:48;;;;;;;;;;;;;;;-1.06;76.67;99768.80;1726883;82;20325;-78
2021/12/09 01:28:21;;;;;;;;;;;;;;;-0.99;76.58;99764.92;1725033;82;20123;-76
2021/12/09 01:30:45;;;;;;;;;;;;;;;-1.05;76.63;99765.29;1720292;82;20167;-77
2021/12/09 01:33:11;;;;;;;;;;;;;;;-1.07;76.80;99760.20;1724016;82;20134;-76
2021/12/09 01:35:40;;;;;;;;;;;;;;;-1.06;77.01;99749.36;1725512;82;21138;-77
2021/12/09 01:38:11;;;;;;;;;;;;;;;-1.06;77.24;99755.84;1730924;82;20946;-76
2021/12/09 01:40:33;;;;;;;;;;;;;;;-1.01;77.14;99746.02;1732451;82;20169;-77
2021/12/09 01:43:00;;;;;;;;;;;;;;;-0.98;77.13;99745.84;1730858;82;20193;-79
2021/12/09 01:45:27;;;;;;;;;;;;;;;-0.99;77.02;99742.89;1720132;81;20181;-77
2021/12/09 01:47:53;;;;;;;;;;;;;;;-1.03;77.10;99747.41;1732687;82;21188;-76
2021/12/09 01:50:19;;;;;;;;;;;;;;;-1.05;76.85;99743.27;1714029;81;20444;-76
2021/12/09 01:52:44;;;;;;;;;;;;;;;-1.09;77.01;99743.45;1733010;82;20220;-77
2021/12/09 01:55:12;;;;;;;;;;;;;;;-1.08;76.59;99745.56;1740319;82;20141;-76
2021/12/09 01:57:38;;;;;;;;;;;;;;;-1.10;76.17;99744.83;1737813;82;20491;-77
2021/12/09 02:00:07;;;;;;;;;;;;;;;-1.18;75.62;99741.41;1728672;82;21135;-80
2021/12/09 02:02:34;;;;;;;;;;;;;;;-1.16;75.41;99733.06;1726775;81;20173;-76
2021/12/09 02:05:02;;;;;;;;;;;;;;;-1.17;75.26;99730.09;1726285;81;20161;-77
2021/12/09 02:07:28;;;;;;;;;;;;;;;-1.12;75.29;99725.49;1728153;82;20210;-76
2021/12/09 02:09:54;;;;;;;;;;;;;;;-1.14;74.98;99726.03;1699149;82;21247;-77
2021/12/09 02:12:19;;;;;;;;;;;;;;;-1.21;75.03;99727.34;1703883;82;22919;-79
2021/12/09 02:14:47;;;;;;;;;;;;;;;-1.26;75.13;99724.16;1728263;82;21320;-77
2021/12/09 02:17:12;;;;;;;;;;;;;;;-1.31;75.02;99723.62;1688869;84;20534;-77
2021/12/09 02:19:42;;;;;;;;;;;;;;;-1.22;74.95;99717.89;1699744;83;20133;-78
2021/12/09 02:22:12;;;;;;;;;;;;;;;-1.32;75.16;99723.23;1700504;83;20225;-77
2021/12/09 02:24:40;;;;;;;;;;;;;;;-1.42;75.35;99726.02;1698348;83;20120;-81
2021/12/09 02:27:07;;;;;;;;;;;;;;;-1.39;75.32;99731.02;1698573;83;20192;-79
2021/12/09 02:29:33;;;;;;;;;;;;;;;-1.55;75.76;99726.73;1700996;83;20174;-78
2021/12/09 02:32:01;;;;;;;;;;;;;;;-1.60;75.92;99720.14;1675196;83;21040;-78
2021/12/09 02:34:26;;;;;;;;;;;;;;;-1.59;76.11;99718.76;1700824;83;20324;-77
2021/12/09 02:36:52;;;;;;;;;;;;;;;-1.46;75.88;99713.25;1695642;83;21168;-77
2021/12/09 02:39:18;;;;;;;;;;;;;;;-1.57;76.34;99711.75;1700149;83;20205;-77
2021/12/09 02:41:48;;;;;;;;;;;;;;;-1.58;76.48;99706.20;1697013;83;20144;-77
2021/12/09 02:44:17;;;;;;;;;;;;;;;-1.68;76.45;99705.05;1700690;83;21344;-75
2021/12/09 02:46:43;;;;;;;;;;;;;;;-1.74;76.69;99704.11;1699907;83;20168;-76
2021/12/09 02:49:14;;;;;;;;;;;;;;;-1.72;76.89;99699.70;1679587;83;22398;-75
2021/12/09 02:51:43;;;;;;;;;;;;;;;-1.65;76.93;99694.52;1682681;84;20495;-75
2021/12/09 02:54:09;;;;;;;;;;;;;;;-1.77;77.22;99687.47;1683008;83;20124;-77
2021/12/09 02:56:35;;;;;;;;;;;;;;;-1.80;77.55;99684.61;1688742;83;21408;-77
2021/12/09 02:59:02;;;;;;;;;;;;;;;-1.91;78.12;99685.23;1701810;83;20157;-77
2021/12/09 03:01:30;;;;;;;;;;;;;;;-2.11;78.96;99679.05;1702315;83;21089;-80
2021/12/09 03:03:59;;;;;;;;;;;;;;;-2.03;78.57;99683.34;1697134;83;20197;-76
2021/12/09 03:06:31;;;;;;;;;;;;;;;-2.02;78.79;99688.87;1695252;83;20966;-78
2021/12/09 03:09:01;;;;;;;;;;;;;;;-2.11;79.66;99675.16;1699040;83;20157;-77
2021/12/09 03:11:26;;;;;;;;;;;;;;;-2.29;80.21;99671.88;1700829;83;20128;-79
2021/12/09 03:13:53;;;;;;;;;;;;;;;-2.27;80.40;99676.50;1698945;83;21003;-77
2021/12/09 03:16:22;;;;;;;;;;;;;;;-2.22;80.00;99688.27;1739951;80;20501;-78
2021/12/09 03:18:49;;;;;;;;;;;;;;;-2.28;80.82;99692.48;1745473;80;20510;-77
2021/12/09 03:21:20;;;;;;;;;;;;;;;-2.28;80.46;99691.19;1757648;80;20194;-75
2021/12/09 03:23:47;;;;;;;;;;;;;;;-2.32;80.35;99688.86;1754399;80;20158;-81
2021/12/09 03:26:13;;;;;;;;;;;;;;;-2.14;80.05;99686.98;1757366;80;20190;-78
2021/12/09 03:28:41;;;;;;;;;;;;;;;-2.26;80.64;99682.05;1749239;80;20179;-78
2021/12/09 03:31:06;;;;;;;;;;;;;;;-2.06;80.04;99680.93;1753334;80;20174;-76
2021/12/09 03:33:32;;;;;;;;;;;;;;;-2.02;79.33;99682.41;1735127;80;21142;-76
2021/12/09 03:36:02;;;;;;;;;;;;;;;-1.95;78.92;99677.27;1746905;80;20128;-76
2021/12/09 03:38:28;;;;;;;;;;;;;;;-2.00;78.82;99687.05;1755696;80;21913;-78
2021/12/09 03:40:54;;;;;;;;;;;;;;;-2.27;79.48;99678.64;1754489;80;20244;-75
2021/12/09 03:43:19;;;;;;;;;;;;;;;-2.20;79.48;99682.53;1756024;80;20179;-77
2021/12/09 03:45:47;;;;;;;;;;;;;;;-2.22;79.35;99676.62;1735825;80;20131;-76
2021/12/09 03:48:14;;;;;;;;;;;;;;;-2.10;79.00;99680.25;1727108;80;20169;-76
2021/12/09 03:50:39;;;;;;;;;;;;;;;-1.99;78.56;99680.94;1752759;80;21949;-77
2021/12/09 03:53:05;;;;;;;;;;;;;;;-1.99;78.20;99680.49;1753230;80;20188;-75
2021/12/09 03:55:31;;;;;;;;;;;;;;;-1.93;77.91;99678.00;1752121;80;20162;-77
2021/12/09 03:57:56;;;;;;;;;;;;;;;-1.90;77.86;99673.94;1749484;80;20906;-76
2021/12/09 04:00:24;;;;;;;;;;;;;;;-2.03;78.15;99677.70;1754066;80;20178;-75
2021/12/09 04:02:51;;;;;;;;;;;;;;;-1.97;77.98;99680.84;1757144;80;20136;-78
2021/12/09 04:05:16;;;;;;;;;;;;;;;-2.00;77.70;99684.47;1750529;80;20193;-78
2021/12/09 04:07:42;;;;;;;;;;;;;;;-2.15;77.83;99685.33;1752987;80;20169;-75
2021/12/09 04:10:09;;;;;;;;;;;;;;;-2.17;78.00;99694.00;1757907;80;20138;-78
2021/12/09 04:12:34;;;;;;;;;;;;;;;-2.17;78.04;99696.59;1753768;80;20451;-77
2021/12/09 04:15:03;;;;;;;;;;;;;;;-2.13;78.09;99699.83;1756776;80;21062;-75
2021/12/09 04:17:29;;;;;;;;;;;;;;;-2.12;78.27;99700.68;1737979;81;20757;-76
2021/12/09 04:19:55;;;;;;;;;;;;;;;-2.09;78.16;99705.68;1740825;81;20153;-79
2021/12/09 04:22:23;;;;;;;;;;;;;;;-2.09;78.09;99705.68;1748903;80;20180;-80
2021/12/09 04:24:49;;;;;;;;;;;;;;;-2.07;78.11;99708.53;1742390;81;20274;-77
2021/12/09 04:27:15;;;;;;;;;;;;;;;-2.22;78.33;99709.39;1744506;81;21153;-76
2021/12/09 04:29:41;;;;;;;;;;;;;;;-2.14;78.04;99703.80;1739940;81;20160;-77
2021/12/09 04:32:08;;;;;;;;;;;;;;;-2.23;78.06;99705.16;1747006;81;20702;-79
2021/12/09 04:34:34;;;;;;;;;;;;;;;-2.12;77.92;99712.32;1740890;81;20164;-77
2021/12/09 04:37:00;;;;;;;;;;;;;;;-2.17;78.00;99714.70;1735957;81;20624;-79
2021/12/09 04:39:28;;;;;;;;;;;;;;;-2.13;78.02;99719.70;1729792;81;21191;-80
2021/12/09 04:41:54;;;;;;;;;;;;;;;-2.04;77.95;99717.89;1738787;81;20146;-78
2021/12/09 04:44:24;;;;;;;;;;;;;;;-1.97;77.94;99714.48;1743334;81;21004;-77
2021/12/09 04:46:54;;;;;;;;;;;;;;;-1.97;77.78;99723.10;1747715;81;20929;-76
2021/12/09 04:49:20;;;;;;;;;;;;;;;-1.95;77.31;99728.19;1737029;81;20193;-79
2021/12/09 04:51:46;;;;;;;;;;;;;;;-1.92;77.29;99724.95;1749287;80;21033;-76
2021/12/09 04:54:13;;;;;;;;;;;;;;;-2.02;77.49;99719.92;1741825;81;20167;-76
2021/12/09 04:56:40;;;;;;;;;;;;;;;-2.17;77.81;99714.70;1734638;81;20183;-77
2021/12/09 04:59:06;;;;;;;;;;;;;;;-2.13;78.15;99715.81;1740686;81;20175;-77
2021/12/09 05:01:32;;;;;;;;;;;;;;;-2.19;78.58;99723.01;1744958;81;20314;-76
2021/12/09 05:04:00;;;;;;;;;;;;;;;-2.15;78.72;99723.66;1737706;80;21005;-81
2021/12/09 05:06:29;;;;;;;;;;;;;;;-2.08;78.58;99719.82;1732265;81;20485;-77
2021/12/09 05:09:05;;;;;;;;;;;;;;;-2.03;78.27;99729.91;1747738;81;20261;-75
2021/12/09 05:14:04;;;;;;;;;;;;;;;-2.06;78.52;99730.09;1737721;81;20146;-76
2021/12/09 05:16:33;;;;;;;;;;;;;;;-1.96;78.54;99718.28;1736732;81;20585;-76
2021/12/09 05:19:00;;;;;;;;;;;;;;;-1.91;78.09;99724.05;1742017;80;20838;-76
2021/12/09 05:21:29;;;;;;;;;;;;;;;-1.82;77.97;99719.64;1746551;81;20554;-76
2021/12/09 05:23:56;;;;;;;;;;;;;;;-1.72;77.78;99724.30;1746879;81;20337;-81
2021/12/09 05:26:26;;;;;;;;;;;;;;;-1.74;77.21;99715.32;1746352;80;20205;-78
2021/12/09 05:28:54;;;;;;;;;;;;;;;-1.73;77.36;99722.14;1746060;80;20149;-81
2021/12/09 05:34:04;;;;;;;;;;;;;;;-1.70;77.52;99724.55;1741695;81;20133;-77
2021/12/09 05:36:30;;;;;;;;;;;;;;;-1.73;77.45;99720.03;1743900;81;20213;-77
2021/12/09 05:38:55;;;;;;;;;;;;;;;-1.84;77.80;99721.46;1742924;80;20152;-78
2021/12/09 05:41:21;;;;;;;;;;;;;;;-1.91;78.08;99721.90;1750658;80;21204;-79
2021/12/09 05:43:48;;;;;;;;;;;;;;;-1.90;78.19;99717.93;1747570;81;20192;-77
2021/12/09 05:46:15;;;;;;;;;;;;;;;-1.82;78.16;99714.47;1749808;81;20178;-80
2021/12/09 05:48:46;;;;;;;;;;;;;;;-1.87;78.31;99722.11;1743722;81;20171;-77
2021/12/09 05:51:13;;;;;;;;;;;;;;;-1.87;78.40;99729.41;1741324;81;20214;-79
2021/12/09 05:53:42;;;;;;;;;;;;;;;-1.82;78.54;99732.58;1713179;80;21148;-76
2021/12/09 05:56:07;;;;;;;;;;;;;;;-1.85;78.44;99741.81;1725817;80;20142;-79
2021/12/09 05:58:35;;;;;;;;;;;;;;;-1.87;78.50;99737.16;1743015;81;20141;-76
2021/12/09 06:01:02;;;;;;;;;;;;;;;-1.93;78.58;99735.39;1737048;80;20196;-77
2021/12/09 06:03:29;;;;;;;;;;;;;;;-1.94;78.71;99722.92;1729645;80;20179;-78
2021/12/09 06:05:56;;;;;;;;;;;;;;;-1.90;78.82;99719.23;1736425;80;21063;-77
2021/12/09 06:08:23;;;;;;;;;;;;;;;-1.92;79.14;99718.48;1735039;80;20194;-80
2021/12/09 06:10:49;;;;;;;;;;;;;;;-1.97;79.17;99716.63;1754274;81;20177;-78
2021/12/09 06:13:18;;;;;;;;;;;;;;;-1.89;79.05;99724.78;1723179;81;20144;-75
2021/12/09 06:15:46;;;;;;;;;;;;;;;-1.99;79.28;99728.80;1721796;80;20122;-76
2021/12/09 06:18:13;;;;;;;;;;;;;;;-1.95;79.44;99726.42;1710364;82;20085;-76
2021/12/09 06:20:43;;;;;;;;;;;;;;;-1.93;79.78;99727.63;1730017;81;20144;-77
2021/12/09 06:23:08;;;;;;;;;;;;;;;-1.78;79.37;99728.53;1736712;81;20221;-77
2021/12/09 06:25:34;;;;;;;;;;;;;;;-1.72;79.27;99725.59;1736900;81;20442;-76
2021/12/09 06:27:59;;;;;;;;;;;;;;;-1.66;79.67;99718.77;1737800;81;20212;-76
2021/12/09 06:30:25;;;;;;;;;;;;;;;-1.65;79.17;99707.46;1739698;80;21013;-76
2021/12/09 06:32:53;;;;;;;;;;;;;;;-1.73;79.79;99706.61;1739356;81;20661;-76
2021/12/09 06:35:21;;;;;;;;;;;;;;;-1.70;79.83;99709.50;1734054;81;20519;-77
2021/12/09 06:37:50;;;;;;;;;;;;;;;-1.82;80.09;99705.41;1729710;81;20724;-77
2021/12/09 06:40:19;;;;;;;;;;;;;;;-1.71;80.10;99711.70;1736659;80;20200;-75
2021/12/09 06:42:45;;;;;;;;;;;;;;;-1.71;79.87;99724.64;1733757;81;20790;-76
2021/12/09 06:45:13;;;;;;;;;;;;;;;-1.75;80.01;99727.88;1736568;80;20574;-76
2021/12/09 06:47:39;;;;;;;;;;;;;;;-1.66;79.85;99735.12;1737962;80;20103;-76
2021/12/09 06:50:05;;;;;;;;;;;;;;;-1.66;79.93;99722.64;1738406;80;20163;-76
2021/12/09 06:52:31;;;;;;;;;;;;;;;-1.65;79.79;99728.17;1731605;80;20196;-77
2021/12/09 06:54:56;;;;;;;;;;;;;;;-1.63;79.69;99740.59;1737833;80;21107;-75
2021/12/09 06:57:22;;;;;;;;;;;;;;;-1.59;79.47;99749.83;1732157;81;20166;-75
2021/12/09 06:59:48;;;;;;;;;;;;;;;-1.66;79.93;99740.77;1742545;81;20505;-74
2021/12/09 07:02:14;;;;;;;;;;;;;;;-1.54;79.79;99734.87;1733351;81;20116;-75
2021/12/09 07:04:40;;;;;;;;;;;;;;;-1.55;79.60;99747.44;1739549;81;20251;-75
2021/12/09 07:07:05;;;;;;;;;;;;;;;-1.58;79.58;99739.85;1738777;81;21183;-75
2021/12/09 07:09:31;;;;;;;;;;;;;;;-1.43;79.45;99739.88;1742852;81;20381;-77
2021/12/09 07:12:00;;;;;;;;;;;;;;;-1.42;79.33;99748.84;1733521;80;20442;-77
2021/12/09 07:14:27;;;;;;;;;;;;;;;-1.40;79.24;99735.34;1724591;81;20901;-77
2021/12/09 07:16:52;;;;;;;;;;;;;;;-1.36;78.95;99743.31;1735625;81;20541;-77
2021/12/09 07:19:21;;;;;;;;;;;;;;;-1.27;78.60;99739.36;1741304;80;21043;-76
2021/12/09 07:21:46;;;;;;;;;;;;;;;-1.38;78.77;99737.84;1737115;81;20238;-75
2021/12/09 07:24:12;;;;;;;;;;;;;;;-1.27;78.61;99738.06;1726692;81;20152;-78
2021/12/09 07:26:37;;;;;;;;;;;;;;;-1.23;78.53;99736.94;1738647;80;20177;-76
2021/12/09 07:29:05;;;;;;;;;;;;;;;-1.23;78.21;99735.64;1740695;81;20164;-77
2021/12/09 07:31:30;;;;;;;;;;;;;;;-1.25;78.43;99731.50;1737329;81;21107;-79
2021/12/09 07:33:56;;;;;;;;;;;;;;;-1.40;78.97;99734.05;1748276;80;20270;-78
2021/12/09 07:36:23;;;;;;;;;;;;;;;-1.27;78.90;99739.36;1726719;80;20187;-79
2021/12/09 07:38:50;;;;;;;;;;;;;;;-1.21;78.70;99743.32;1720922;80;20228;-76
2021/12/09 07:41:16;;;;;;;;;;;;;;;-1.23;78.68;99744.70;1738720;81;20135;-77
2021/12/09 07:43:43;;;;;;;;;;;;;;;-1.22;78.67;99742.97;1743222;81;21095;-77
2021/12/09 07:46:09;;;;;;;;;;;;;;;-1.16;78.67;99740.84;1754265;81;20205;-77
2021/12/09 07:48:35;;;;;;;;;;;;;;;-1.18;78.69;99745.29;1744891;81;20186;-79
2021/12/09 07:51:00;;;;;;;;;;;;;;;-1.15;78.72;99746.84;1740254;81;20152;-77
2021/12/09 07:53:27;;;;;;;;;;;;;;;-1.12;78.43;99750.11;1745947;81;21524;-78
2021/12/09 07:55:53;;;;;;;;;;;;;;;-1.09;78.57;99754.25;1751387;81;21181;-76
2021/12/09 07:58:19;;;;;;;;;;;;;;;-1.01;78.43;99748.61;1736885;81;20279;-76
2021/12/09 08:00:47;;;;;;;;;;;;;;;-0.99;78.35;99754.56;1723633;81;20144;-77
2021/12/09 08:03:12;;;;;;;;;;;;;;;-1.02;78.46;99746.97;1712645;81;20126;-79
2021/12/09 08:05:40;;;;;;;;;;;;;;;-0.98;78.60;99738.06;1732812;80;20300;-78
2021/12/09 08:08:06;;;;;;;;;;;;;;;-1.07;78.65;99738.61;1734296;81;21856;-76
2021/12/09 08:10:31;;;;;;;;;;;;;;;-1.02;78.69;99741.78;1709154;80;20245;-77
2021/12/09 08:12:58;;;;;;;;;;;;;;;-1.01;78.88;99740.84;1739912;80;20176;-77
2021/12/09 08:15:32;;;;;;;;;;;;;;;-0.99;78.80;99741.60;1738246;80;20219;-77
2021/12/09 08:18:14;;;;;;;;;;;;;;;-0.94;78.78;99752.52;1730383;80;20173;-77
2021/12/09 08:20:33;;;;;;;;;;;;;;;-1.05;78.83;99735.48;1728667;80;20413;-80
2021/12/09 08:22:59;;;;;;;;;;;;;;;-1.02;79.08;99724.47;1737349;80;20174;-78
2021/12/09 08:25:25;;;;;;;;;;;;;;;-1.01;79.18;99727.88;1742184;80;20167;-77
2021/12/09 08:27:51;;;;;;;;;;;;;;;-1.07;79.66;99728.25;1731894;80;20194;-81
2021/12/09 08:30:20;;;;;;;;;;;;;;;-1.01;79.57;99731.77;1743786;80;20164;-80
2021/12/09 08:32:45;;;;;;;;;;;;;;;-0.95;79.58;99731.40;1728116;80;21321;-79
2021/12/09 08:35:11;;;;;;;;;;;;;;;-0.94;79.66;99730.48;1740266;80;20303;-79
2021/12/09 08:37:37;;;;;;;;;;;;;;;-0.84;79.28;99732.89;1748401;80;20243;-79
2021/12/09 08:40:04;;;;;;;;;;;;;;;-0.77;79.21;99734.17;1738913;80;20179;-77
2021/12/09 08:42:32;;;;;;;;;;;;;;;-0.93;79.77;99741.23;1734916;80;20385;-78
2021/12/09 08:44:57;;;;;;;;;;;;;;;-0.82;79.50;99745.29;1737679;80;21061;-78
2021/12/09 08:47:26;;;;;;;;;;;;;;;-0.73;79.32;99748.63;1745241;80;20178;-76
2021/12/09 08:49:52;;;;;;;;;;;;;;;-0.73;79.48;99755.10;1741583;80;20179;-78
2021/12/09 08:52:18;;;;;;;;;;;;;;;-0.89;79.83;99763.42;1733287;80;20122;-77
2021/12/09 08:54:45;;;;;;;;;;;;;;;-0.74;79.44;99757.31;1733124;80;20210;-79
2021/12/09 08:57:12;;;;;;;;;;;;;;;-0.73;79.52;99766.77;1745899;80;21319;-79
2021/12/09 08:59:37;;;;;;;;;;;;;;;-0.60;79.51;99768.61;1751970;80;20202;-78
2021/12/09 09:02:03;;;;;;;;;;;;;;;-0.56;79.25;99770.07;1743571;80;20144;-78
2021/12/09 09:04:29;;;;;;;;;;;;;;;-0.61;79.35;99756.56;1744924;80;20187;-80
2021/12/09 09:06:59;;;;;;;;;;;;;;;-0.61;79.65;99756.56;1746303;80;20713;-77
2021/12/09 09:09:27;;;;;;;;;;;;;;;-0.59;79.67;99752.11;1740193;80;20120;-78
2021/12/09 09:11:53;;;;;;;;;;;;;;;-0.55;79.57;99760.08;1749071;80;20120;-77
2021/12/09 09:14:19;;;;;;;;;;;;;;;-0.44;79.69;99761.53;1740481;80;20619;-77
2021/12/09 09:16:45;;;;;;;;;;;;;;;-0.29;79.17;99751.15;1739373;80;20128;-77
2021/12/09 09:19:15;;;;;;;;;;;;;;;-0.32;79.09;99753.45;1733548;80;20151;-77
2021/12/09 09:21:42;;;;;;;;;;;;;;;-0.37;79.44;99744.66;1746788;81;20632;-81
2021/12/09 09:24:10;;;;;;;;;;;;;;;-0.40;79.75;99756.53;1750488;81;20198;-77
2021/12/09 09:26:39;;;;;;;;;;;;;;;-0.42;79.66;99751.91;1748966;80;20130;-78
2021/12/09 09:29:06;;;;;;;;;;;;;;;-0.45;79.81;99744.77;1751191;81;20127;-77
2021/12/09 09:31:32;;;;;;;;;;;;;;;-0.49;80.00;99751.92;1744415;81;20223;-79
2021/12/09 09:34:02;;;;;;;;;;;;;;;-0.48;80.19;99756.19;1740836;81;21120;-76
2021/12/09 09:36:27;;;;;;;;;;;;;;;-0.48;80.30;99753.59;1720586;81;20160;-77
2021/12/09 09:39:06;;;;;;;;;;;;;;;-0.45;80.40;99749.95;1721432;81;20170;-77
2021/12/09 09:41:31;;;;;;;;;;;;;;;-0.37;80.28;99747.27;1739274;81;20126;-77
2021/12/09 09:43:58;;;;;;;;;;;;;;;-0.32;80.29;99750.05;1718987;81;20162;-77
2021/12/09 09:46:28;;;;;;;;;;;;;;;-0.28;80.20;99751.05;1738815;80;20514;-79
2021/12/09 09:48:54;;;;;;;;;;;;;;;-0.35;80.44;99751.05;1741873;81;20160;-78
2021/12/09 09:51:21;;;;;;;;;;;;;;;-0.28;80.19;99739.82;1737770;81;20139;-77
2021/12/09 09:53:47;;;;;;;;;;;;;;;-0.32;80.46;99744.86;1741191;81;20528;-78
2021/12/09 09:56:16;;;;;;;;;;;;;;;-0.33;80.56;99745.77;1739215;81;20191;-78
2021/12/09 09:58:43;;;;;;;;;;;;;;;-0.35;80.75;99738.56;1738949;81;20157;-78
2021/12/09 10:01:09;;;;;;;;;;;;;;;-0.31;80.70;99733.52;1736774;81;20083;-78
2021/12/09 10:03:44;;;;;;;;;;;;;;;-0.38;81.05;99726.13;1714715;81;20171;-77
2021/12/09 10:06:10;;;;;;;;;;;;;;;-0.31;81.02;99724.45;1742666;81;20131;-78
2021/12/09 10:08:35;;;;;;;;;;;;;;;-0.19;80.73;99705.50;1725901;81;20271;-78
2021/12/09 10:11:03;;;;;;;;;;;;;;;-0.22;80.86;99682.34;1743760;80;21893;-80
2021/12/09 10:13:33;;;;;;;;;;;;;;;-0.11;80.88;99672.13;1733241;80;20353;-78
2021/12/09 10:16:00;;;;;;;;;;;;;;;-0.15;80.78;99665.46;1721700;81;20139;-77
2021/12/09 10:18:37;;;;;;;;;;;;;;;-0.24;81.17;99686.34;1716046;80;20173;-77
2021/12/09 10:21:05;;;;;;;;;;;;;;;-0.21;81.32;99688.73;1760189;80;20174;-77
2021/12/09 10:23:35;;;;;;;;;;;;;;;-0.20;81.30;99680.03;1760421;80;21075;-77
2021/12/09 10:26:25;;;;;;;;;;;;;;;-0.19;81.42;99673.06;1737185;81;20313;-77
2021/12/09 10:28:55;;;;;;;;;;;;;;;-0.17;81.70;99689.39;1740939;80;20930;-80
2021/12/09 10:31:24;;;;;;;;;;;;;;;-0.12;81.58;99687.80;1734741;81;20132;-77
2021/12/09 10:34:15;;;;;;;;;;;;;;;-0.05;81.60;99686.00;1715872;81;20180;-76
2021/12/09 10:37:11;;;;;;;;;;;;;;;-0.04;81.56;99690.24;1740375;81;20175;-79
2021/12/09 10:39:56;;;;;;;;;;;;;;;-0.10;81.99;99681.55;1734854;81;20174;-77
2021/12/09 10:42:27;;;;;;;;;;;;;;;-0.17;82.34;99672.52;1710106;81;20218;-75
2021/12/09 10:45:08;;;;;;;;;;;;;;;-0.07;82.41;99688.32;1690779;81;37982;-75
2021/12/09 10:47:55;;;;;;;;;;;;;;;-0.06;82.27;99683.03;1739825;81;20156;-76
2021/12/09 10:50:58;;;;;;;;;;;;;;;0.06;82.03;99684.45;1743373;81;20301;-77
2021/12/09 10:55:58;;;;;;;;;;;;;;;0.12;82.16;99696.55;1738301;81;20293;-76
2021/12/09 10:58:29;;;;;;;;;;;;;;;0.14;82.34;99701.64;1743961;81;20177;-80
2021/12/09 11:00:56;;;;;;;;;;;;;;;0.16;82.42;99703.70;1744096;80;21010;-77
2021/12/09 11:03:34;;;;;;;;;;;;;;;0.33;82.09;99706.00;1743826;80;21870;-78
2021/12/09 11:06:06;;;;;;;;;;;;;;;0.40;81.71;99696.51;1747830;81;20946;-77
2021/12/09 11:08:39;;;;;;;;;;;;;;;0.31;81.74;99681.91;1728133;80;20211;-79
2021/12/09 11:11:18;;;;;;;;;;;;;;;0.30;81.76;99684.13;1741049;81;20201;-82
2021/12/09 11:14:07;;;;;;;;;;;;;;;0.26;82.15;99681.36;1742378;80;20241;-76
2021/12/09 11:16:39;;;;;;;;;;;;;;;0.21;82.46;99666.56;1739884;81;20152;-77
2021/12/09 11:19:39;;;;;;;;;;;;;;;0.30;82.29;99656.86;1735656;81;20266;-76
2021/12/09 11:22:08;;;;;;;;;;;;;;;0.37;82.20;99649.96;1736676;80;20163;-76
2021/12/09 11:24:38;;;;;;;;;;;;;;;0.14;83.00;99636.73;1743237;80;20469;-77
2021/12/09 11:27:07;;;;;;;;;;;;;;;0.18;82.93;99636.91;1736831;80;20151;-77
2021/12/09 11:29:43;;;;;;;;;;;;;;;0.29;82.76;99638.31;1730042;81;21135;-77
2021/12/09 11:32:21;;;;;;;;;;;;;;;0.25;83.18;99626.48;1731909;80;20133;-76
2021/12/09 11:35:10;;;;;;;;;;;;;;;0.28;83.13;99619.79;1738293;80;20486;-77
2021/12/09 11:40:13;;;;;;;;;;;;;;;0.26;83.38;99626.83;1735486;81;20205;-76
2021/12/09 11:45:10;;;;;;;;;;;;;;;0.44;82.95;99616.16;1741206;80;20131;-77
2021/12/09 11:47:42;;;;;;;;;;;;;;;0.50;82.88;99613.14;1737948;81;20150;-78
2021/12/09 11:50:11;;;;;;;;;;;;;;;0.42;83.06;99618.00;1732222;81;21088;-76
2021/12/09 11:52:42;;;;;;;;;;;;;;;0.52;82.75;99622.95;1747778;80;20164;-77
2021/12/09 11:55:09;;;;;;;;;;;;;;;0.28;83.44;99626.28;1734940;81;20145;-78
2021/12/09 11:57:50;;;;;;;;;;;;;;;0.29;83.82;99616.23;1747556;80;20110;-78
2021/12/09 12:12:31;;;;;;;;;;;;;;;0.07;84.94;99597.86;1728336;81;20162;-79
2021/12/09 12:15:00;;;;;;;;;;;;;;;0.27;84.71;99597.34;1733384;81;20138;-75
2021/12/09 12:20:14;;;;;;;;;;;;;;;0.23;85.14;99589.39;1735602;81;20500;-80
2021/12/09 12:23:05;;;;;;;;;;;;;;;0.34;85.01;99596.00;1743176;80;20185;-77
2021/12/09 12:28:35;;;;;;;;;;;;;;;0.07;86.52;99580.98;1740166;80;20282;-78
2021/12/09 12:33:33;;;;;;;;;;;;;;;0.07;86.98;99575.80;1743278;80;20143;-77
2021/12/09 12:36:02;;;;;;;;;;;;;;;0.16;86.86;99581.19;1735369;80;20642;-78
2021/12/09 12:41:00;;;;;;;;;;;;;;;0.21;86.65;99578.28;1734420;80;20109;-76
2021/12/09 12:43:39;;;;;;;;;;;;;;;0.31;86.51;99580.63;1707144;81;20231;-76
2021/12/09 12:46:33;;;;;;;;;;;;;;;0.32;86.12;99587.46;1717392;81;20151;-77
2021/12/09 12:49:08;;;;;;;;;;;;;;;0.35;86.00;99585.95;1740441;80;20212;-77
2021/12/09 12:51:48;;;;;;;;;;;;;;;0.13;86.29;99593.56;1732732;81;20186;-77
2021/12/09 12:54:44;;;;;;;;;;;;;;;0.18;86.08;99591.47;1740466;81;20145;-80
2021/12/09 12:57:14;;;;;;;;;;;;;;;0.25;86.01;99584.09;1734641;80;20091;-77
2021/12/09 12:59:41;;;;;;;;;;;;;;;0.26;85.93;99578.79;1721177;81;20171;-76
2021/12/09 13:02:26;;;;;;;;;;;;;;;0.20;86.00;99572.72;1721742;82;21129;-76
2021/12/09 13:04:55;;;;;;;;;;;;;;;-0.05;86.82;99570.50;1725497;82;20454;-79
2021/12/09 13:13:03;;;;;;;;;;;;;;;0.07;86.56;99566.23;1725300;81;20106;-76
2021/12/09 13:15:44;;;;;;;;;;;;;;;0.00;86.72;99567.59;1718310;81;20127;-79
2021/12/09 13:18:02;;;;;;;;;;;;;;;-0.08;87.07;99564.66;1726221;81;20647;-79
2021/12/09 13:20:34;;;;;;;;;;;;;;;-0.11;87.17;99569.61;1737144;80;20997;-76
2021/12/09 13:23:25;;;;;;;;;;;;;;;-0.11;87.52;99581.30;1746889;80;20132;-78
2021/12/09 13:26:27;;;;;;;;;;;;;;;-0.06;87.09;99593.97;1743916;80;20182;-79
2021/12/09 13:29:22;;;;;;;;;;;;;;;-0.02;87.02;99596.25;1741828;80;20120;-77
2021/12/09 13:32:38;;;;;;;;;;;;;;;-0.05;87.17;99606.84;1740851;80;20146;-77
2021/12/09 13:34:33;;;;;;;;;;;;;;;0.05;86.95;99612.69;1726446;80;20150;-77
2021/12/09 13:37:27;;;;;;;;;;;;;;;0.11;86.77;99606.64;1713833;81;20238;-78
2021/12/09 13:40:15;;;;;;;;;;;;;;;0.11;86.69;99603.19;1726713;80;20166;-79